sensor_id;sensor_type;location;lat;lon;timestamp;pressure;altitude;pressure_sealevel;temperature;humidity
56807;BME280;42687;42.524;12.052;2023-05-29T00:00:20;96419.09;;;12.38;77.19
56807;BME280;42687;42.524;12.052;2023-05-29T00:02:47;96422.03;;;12.46;79.60
56807;BME280;42687;42.524;12.052;2023-05-29T00:05:14;96408.56;;;12.38;78.34
56807;BME280;42687;42.524;12.052;2023-05-29T00:07:41;96380.97;;;12.17;79.81
56807;BME280;42687;42.524;12.052;2023-05-29T00:10:08;96401.72;;;12.35;80.03
56807;BME280;42687;42.524;12.052;2023-05-29T00:12:35;96415.59;;;12.37;80.17
56807;BME280;42687;42.524;12.052;2023-05-29T00:15:02;96405.41;;;12.32;80.11
56807;BME280;42687;42.524;12.052;2023-05-29T00:17:31;96407.28;;;12.30;82.83
56807;BME280;42687;42.524;12.052;2023-05-29T00:20:00;96392.66;;;12.26;81.72
56807;BME280;42687;42.524;12.052;2023-05-29T00:22:27;96383.66;;;12.29;82.03
56807;BME280;42687;42.524;12.052;2023-05-29T00:24:53;96401.81;;;12.33;82.18
56807;BME280;42687;42.524;12.052;2023-05-29T00:27:18;96397.69;;;12.29;82.00
56807;BME280;42687;42.524;12.052;2023-05-29T00:29:45;96396.13;;;12.27;79.01
56807;BME280;42687;42.524;12.052;2023-05-29T00:32:11;96391.53;;;12.17;78.25
56807;BME280;42687;42.524;12.052;2023-05-29T00:34:36;96403.41;;;12.23;80.77
56807;BME280;42687;42.524;12.052;2023-05-29T00:37:02;96388.88;;;12.17;82.21
56807;BME280;42687;42.524;12.052;2023-05-29T00:39:28;96385.28;;;12.18;81.22
56807;BME280;42687;42.524;12.052;2023-05-29T00:41:54;96396.34;;;12.24;85.06
56807;BME280;42687;42.524;12.052;2023-05-29T00:44:21;96390.00;;;12.26;84.37
56807;BME280;42687;42.524;12.052;2023-05-29T00:46:51;96392.94;;;12.34;83.27
56807;BME280;42687;42.524;12.052;2023-05-29T00:49:22;96392.38;;;12.42;86.26
56807;BME280;42687;42.524;12.052;2023-05-29T00:51:51;96375.00;;;12.40;87.11
56807;BME280;42687;42.524;12.052;2023-05-29T00:54:25;96385.94;;;12.46;87.58
56807;BME280;42687;42.524;12.052;2023-05-29T00:56:52;96380.47;;;12.49;88.42
56807;BME280;42687;42.524;12.052;2023-05-29T00:59:19;96375.78;;;12.53;88.12
56807;BME280;42687;42.524;12.052;2023-05-29T01:01:48;96371.56;;;12.50;88.17
56807;BME280;42687;42.524;12.052;2023-05-29T01:04:16;96382.88;;;12.52;87.99
56807;BME280;42687;42.524;12.052;2023-05-29T01:06:43;96383.38;;;12.58;87.50
56807;BME280;42687;42.524;12.052;2023-05-29T01:09:10;96372.84;;;12.58;86.50
56807;BME280;42687;42.524;12.052;2023-05-29T01:20:30;96371.91;;;12.22;82.80
56807;BME280;42687;42.524;12.052;2023-05-29T01:28:44;96336.28;;;11.90;87.14
56807;BME280;42687;42.524;12.052;2023-05-29T01:31:12;96375.59;;;12.19;89.08
56807;BME280;42687;42.524;12.052;2023-05-29T01:33:40;96374.19;;;12.26;90.41
56807;BME280;42687;42.524;12.052;2023-05-29T01:36:09;96369.53;;;12.30;89.58
56807;BME280;42687;42.524;12.052;2023-05-29T01:38:36;96382.31;;;12.36;89.87
56807;BME280;42687;42.524;12.052;2023-05-29T01:41:03;96369.78;;;12.27;89.71
56807;BME280;42687;42.524;12.052;2023-05-29T01:43:29;96370.31;;;12.19;89.76
56807;BME280;42687;42.524;12.052;2023-05-29T01:45:56;96372.63;;;12.11;89.34
56807;BME280;42687;42.524;12.052;2023-05-29T01:48:23;96385.63;;;12.14;88.84
56807;BME280;42687;42.524;12.052;2023-05-29T01:50:49;96381.09;;;12.03;89.17
56807;BME280;42687;42.524;12.052;2023-05-29T01:53:15;96382.88;;;11.90;88.72
56807;BME280;42687;42.524;12.052;2023-05-29T01:55:42;96392.25;;;11.81;88.58
56807;BME280;42687;42.524;12.052;2023-05-29T01:58:08;96384.88;;;11.73;88.79
56807;BME280;42687;42.524;12.052;2023-05-29T02:00:36;96384.22;;;11.69;88.19
56807;BME280;42687;42.524;12.052;2023-05-29T02:03:01;96386.25;;;11.66;86.34
56807;BME280;42687;42.524;12.052;2023-05-29T02:05:27;96394.56;;;11.60;85.57
56807;BME280;42687;42.524;12.052;2023-05-29T02:07:53;96396.16;;;11.62;83.79
56807;BME280;42687;42.524;12.052;2023-05-29T02:10:18;96390.53;;;11.67;82.92
56807;BME280;42687;42.524;12.052;2023-05-29T02:12:45;96372.97;;;11.67;85.14
56807;BME280;42687;42.524;12.052;2023-05-29T02:15:10;96378.53;;;11.76;87.34
56807;BME280;42687;42.524;12.052;2023-05-29T02:17:36;96376.22;;;11.84;87.06
56807;BME280;42687;42.524;12.052;2023-05-29T02:20:02;96365.78;;;11.82;88.68
56807;BME280;42687;42.524;12.052;2023-05-29T02:22:32;96373.06;;;11.92;90.69
56807;BME280;42687;42.524;12.052;2023-05-29T02:24:57;96374.97;;;12.02;91.35
56807;BME280;42687;42.524;12.052;2023-05-29T02:27:23;96362.53;;;12.05;91.71
56807;BME280;42687;42.524;12.052;2023-05-29T02:29:49;96370.31;;;12.19;91.87
56807;BME280;42687;42.524;12.052;2023-05-29T02:32:14;96362.28;;;12.21;91.88
56807;BME280;42687;42.524;12.052;2023-05-29T02:34:40;96358.88;;;12.31;92.04
56807;BME280;42687;42.524;12.052;2023-05-29T02:37:05;96367.19;;;12.38;91.69
56807;BME280;42687;42.524;12.052;2023-05-29T02:39:31;96365.47;;;12.50;90.57
56807;BME280;42687;42.524;12.052;2023-05-29T02:41:57;96351.47;;;12.49;91.08
56807;BME280;42687;42.524;12.052;2023-05-29T02:44:22;96364.91;;;12.58;91.72
56807;BME280;42687;42.524;12.052;2023-05-29T02:46:48;96370.59;;;12.64;92.71
56807;BME280;42687;42.524;12.052;2023-05-29T02:49:14;96370.75;;;12.74;91.99
56807;BME280;42687;42.524;12.052;2023-05-29T02:51:39;96355.66;;;12.76;93.00
56807;BME280;42687;42.524;12.052;2023-05-29T02:54:05;96370.94;;;12.84;91.61
56807;BME280;42687;42.524;12.052;2023-05-29T02:56:31;96359.91;;;12.90;91.08
56807;BME280;42687;42.524;12.052;2023-05-29T02:58:56;96372.16;;;12.91;90.60
56807;BME280;42687;42.524;12.052;2023-05-29T03:01:22;96380.13;;;13.02;91.46
56807;BME280;42687;42.524;12.052;2023-05-29T03:03:48;96366.94;;;13.02;90.51
56807;BME280;42687;42.524;12.052;2023-05-29T03:06:13;96357.72;;;13.08;90.05
56807;BME280;42687;42.524;12.052;2023-05-29T03:08:39;96369.59;;;13.14;89.23
56807;BME280;42687;42.524;12.052;2023-05-29T03:11:13;96374.44;;;13.20;87.92
56807;BME280;42687;42.524;12.052;2023-05-29T03:13:40;96364.50;;;13.24;87.77
56807;BME280;42687;42.524;12.052;2023-05-29T03:16:06;96366.91;;;13.27;85.72
56807;BME280;42687;42.524;12.052;2023-05-29T03:18:34;96377.72;;;13.35;85.31
56807;BME280;42687;42.524;12.052;2023-05-29T03:21:00;96370.75;;;13.34;84.51
56807;BME280;42687;42.524;12.052;2023-05-29T03:23:25;96372.22;;;13.38;85.06
56807;BME280;42687;42.524;12.052;2023-05-29T03:25:51;96372.84;;;13.42;85.12
56807;BME280;42687;42.524;12.052;2023-05-29T03:28:17;96358.19;;;13.38;85.13
56807;BME280;42687;42.524;12.052;2023-05-29T03:30:42;96369.69;;;13.37;84.09
56807;BME280;42687;42.524;12.052;2023-05-29T03:33:08;96362.81;;;13.34;83.94
56807;BME280;42687;42.524;12.052;2023-05-29T03:35:34;96371.50;;;13.36;83.40
56807;BME280;42687;42.524;12.052;2023-05-29T03:37:59;96361.88;;;13.35;83.29
56807;BME280;42687;42.524;12.052;2023-05-29T03:40:25;96370.66;;;13.35;81.67
56807;BME280;42687;42.524;12.052;2023-05-29T03:42:51;96372.00;;;13.41;82.19
56807;BME280;42687;42.524;12.052;2023-05-29T03:45:16;96362.41;;;13.40;80.38
56807;BME280;42687;42.524;12.052;2023-05-29T03:47:42;96347.03;;;13.45;79.77
56807;BME280;42687;42.524;12.052;2023-05-29T03:50:08;96359.66;;;13.53;79.91
56807;BME280;42687;42.524;12.052;2023-05-29T03:52:34;96359.19;;;13.59;78.20
56807;BME280;42687;42.524;12.052;2023-05-29T03:55:01;96365.56;;;13.68;78.75
56807;BME280;42687;42.524;12.052;2023-05-29T03:57:27;96351.28;;;13.71;77.91
56807;BME280;42687;42.524;12.052;2023-05-29T03:59:52;96350.19;;;13.73;77.48
56807;BME280;42687;42.524;12.052;2023-05-29T04:02:18;96358.50;;;13.80;77.22
56807;BME280;42687;42.524;12.052;2023-05-29T04:04:44;96359.81;;;13.85;77.00
56807;BME280;42687;42.524;12.052;2023-05-29T04:07:10;96356.56;;;13.93;77.36
56807;BME280;42687;42.524;12.052;2023-05-29T04:09:36;96349.38;;;13.95;76.63
56807;BME280;42687;42.524;12.052;2023-05-29T04:12:03;96356.59;;;14.05;77.17
56807;BME280;42687;42.524;12.052;2023-05-29T04:14:31;96349.59;;;14.04;77.20
56807;BME280;42687;42.524;12.052;2023-05-29T04:16:57;96363.88;;;14.12;77.32
56807;BME280;42687;42.524;12.052;2023-05-29T04:19:22;96357.16;;;14.08;78.00
56807;BME280;42687;42.524;12.052;2023-05-29T04:21:48;96366.53;;;14.12;77.87
56807;BME280;42687;42.524;12.052;2023-05-29T04:24:16;96362.72;;;14.16;77.28
56807;BME280;42687;42.524;12.052;2023-05-29T04:26:42;96374.00;;;14.18;78.07
56807;BME280;42687;42.524;12.052;2023-05-29T04:29:08;96360.28;;;14.13;78.15
56807;BME280;42687;42.524;12.052;2023-05-29T04:31:34;96364.38;;;14.17;79.08
56807;BME280;42687;42.524;12.052;2023-05-29T04:34:02;96358.25;;;14.17;79.58
56807;BME280;42687;42.524;12.052;2023-05-29T04:36:30;96371.56;;;14.27;78.96
56807;BME280;42687;42.524;12.052;2023-05-29T04:38:59;96365.31;;;14.28;79.55
56807;BME280;42687;42.524;12.052;2023-05-29T04:41:25;96365.31;;;14.28;79.59
56807;BME280;42687;42.524;12.052;2023-05-29T04:43:55;96370.97;;;14.34;79.21
56807;BME280;42687;42.524;12.052;2023-05-29T04:46:22;96365.31;;;14.39;79.04
56807;BME280;42687;42.524;12.052;2023-05-29T04:48:50;96357.25;;;14.41;77.83
56807;BME280;42687;42.524;12.052;2023-05-29T04:51:19;96360.94;;;14.49;78.62
56807;BME280;42687;42.524;12.052;2023-05-29T04:53:45;96353.50;;;14.55;78.13
56807;BME280;42687;42.524;12.052;2023-05-29T04:56:12;96362.63;;;14.62;77.90
56807;BME280;42687;42.524;12.052;2023-05-29T04:58:38;96364.09;;;14.66;78.29
56807;BME280;42687;42.524;12.052;2023-05-29T05:01:04;96365.41;;;14.72;78.27
56807;BME280;42687;42.524;12.052;2023-05-29T05:03:31;96362.63;;;14.73;77.72
56807;BME280;42687;42.524;12.052;2023-05-29T05:06:02;96376.53;;;14.87;77.58
56807;BME280;42687;42.524;12.052;2023-05-29T05:08:30;96378.00;;;14.91;77.86
56807;BME280;42687;42.524;12.052;2023-05-29T05:10:57;96371.56;;;14.93;77.76
56807;BME280;42687;42.524;12.052;2023-05-29T05:13:23;96376.72;;;15.06;76.98
56807;BME280;42687;42.524;12.052;2023-05-29T05:15:49;96346.78;;;14.94;76.78
56807;BME280;42687;42.524;12.052;2023-05-29T05:18:15;96384.50;;;15.19;76.64
56807;BME280;42687;42.524;12.052;2023-05-29T05:20:40;96366.66;;;15.21;76.69
56807;BME280;42687;42.524;12.052;2023-05-29T05:23:06;96368.66;;;15.29;76.50
56807;BME280;42687;42.524;12.052;2023-05-29T05:25:32;96375.13;;;15.36;76.54
56807;BME280;42687;42.524;12.052;2023-05-29T05:28:01;96376.44;;;15.42;76.53
56807;BME280;42687;42.524;12.052;2023-05-29T05:30:28;96372.69;;;15.44;76.30
56807;BME280;42687;42.524;12.052;2023-05-29T05:32:54;96373.31;;;15.58;76.54
56807;BME280;42687;42.524;12.052;2023-05-29T05:35:20;96335.25;;;15.38;76.34
56807;BME280;42687;42.524;12.052;2023-05-29T05:37:46;96364.59;;;15.67;76.38
56807;BME280;42687;42.524;12.052;2023-05-29T05:40:12;96370.66;;;15.79;76.23
56807;BME280;42687;42.524;12.052;2023-05-29T05:42:37;96373.13;;;15.92;76.25
56807;BME280;42687;42.524;12.052;2023-05-29T05:45:04;96373.75;;;16.05;75.91
56807;BME280;42687;42.524;12.052;2023-05-29T05:47:34;96383.72;;;16.23;75.56
56807;BME280;42687;42.524;12.052;2023-05-29T05:50:00;96378.75;;;16.39;75.20
56807;BME280;42687;42.524;12.052;2023-05-29T05:52:26;96377.88;;;16.89;74.35
56807;BME280;42687;42.524;12.052;2023-05-29T05:54:56;96363.38;;;17.52;73.05
56807;BME280;42687;42.524;12.052;2023-05-29T05:57:22;96370.75;;;18.25;72.25
56807;BME280;42687;42.524;12.052;2023-05-29T05:59:47;96375.13;;;19.00;71.56
56807;BME280;42687;42.524;12.052;2023-05-29T06:02:13;96367.47;;;19.59;71.86
56807;BME280;42687;42.524;12.052;2023-05-29T06:04:39;96356.00;;;20.20;71.19
56807;BME280;42687;42.524;12.052;2023-05-29T06:07:05;96366.16;;;20.85;71.29
56807;BME280;42687;42.524;12.052;2023-05-29T06:09:31;96364.88;;;21.22;71.08
56807;BME280;42687;42.524;12.052;2023-05-29T06:11:57;96368.41;;;21.64;70.64
56807;BME280;42687;42.524;12.052;2023-05-29T06:14:23;96381.72;;;22.05;70.49
56807;BME280;42687;42.524;12.052;2023-05-29T06:16:49;96376.63;;;22.43;69.93
56807;BME280;42687;42.524;12.052;2023-05-29T06:19:16;96374.66;;;22.77;69.05
56807;BME280;42687;42.524;12.052;2023-05-29T06:21:42;96340.34;;;22.95;67.96
56807;BME280;42687;42.524;12.052;2023-05-29T06:24:07;96361.25;;;23.31;67.23
56807;BME280;42687;42.524;12.052;2023-05-29T06:26:33;96366.91;;;23.60;66.35
56807;BME280;42687;42.524;12.052;2023-05-29T06:28:59;96363.53;;;23.66;65.50
56807;BME280;42687;42.524;12.052;2023-05-29T06:31:25;96375.19;;;23.73;65.04
56807;BME280;42687;42.524;12.052;2023-05-29T06:33:51;96369.44;;;23.76;64.79
56807;BME280;42687;42.524;12.052;2023-05-29T06:36:16;96364.19;;;23.83;64.18
56807;BME280;42687;42.524;12.052;2023-05-29T06:38:49;96372.03;;;23.93;63.33
56807;BME280;42687;42.524;12.052;2023-05-29T06:41:16;96372.22;;;24.21;62.90
56807;BME280;42687;42.524;12.052;2023-05-29T06:43:42;96374.56;;;24.39;62.18
56807;BME280;42687;42.524;12.052;2023-05-29T06:46:07;96365.66;;;24.69;60.97
56807;BME280;42687;42.524;12.052;2023-05-29T06:48:36;96364.88;;;24.90;60.60
56807;BME280;42687;42.524;12.052;2023-05-29T06:51:02;96354.00;;;24.98;60.94
56807;BME280;42687;42.524;12.052;2023-05-29T06:53:37;96363.56;;;25.22;60.54
56807;BME280;42687;42.524;12.052;2023-05-29T06:56:04;96363.28;;;25.17;60.66
56807;BME280;42687;42.524;12.052;2023-05-29T06:58:31;96377.06;;;25.29;61.35
56807;BME280;42687;42.524;12.052;2023-05-29T07:00:57;96377.69;;;25.46;60.79
56807;BME280;42687;42.524;12.052;2023-05-29T07:03:25;96373.44;;;25.58;61.12
56807;BME280;42687;42.524;12.052;2023-05-29T07:05:52;96380.91;;;25.56;60.95
56807;BME280;42687;42.524;12.052;2023-05-29T07:08:18;96381.59;;;25.65;60.85
56807;BME280;42687;42.524;12.052;2023-05-29T07:10:44;96383.03;;;25.68;60.90
56807;BME280;42687;42.524;12.052;2023-05-29T07:13:10;96373.59;;;25.72;61.10
56807;BME280;42687;42.524;12.052;2023-05-29T07:15:37;96391.31;;;25.88;61.38
56807;BME280;42687;42.524;12.052;2023-05-29T07:18:03;96386.84;;;26.02;61.18
56807;BME280;42687;42.524;12.052;2023-05-29T07:20:28;96397.22;;;26.26;61.23
56807;BME280;42687;42.524;12.052;2023-05-29T07:22:54;96384.03;;;26.38;60.92
56807;BME280;42687;42.524;12.052;2023-05-29T07:25:20;96386.84;;;26.65;60.59
56807;BME280;42687;42.524;12.052;2023-05-29T07:27:45;96386.94;;;26.78;60.56
56807;BME280;42687;42.524;12.052;2023-05-29T07:30:11;96395.84;;;26.79;60.52
56807;BME280;42687;42.524;12.052;2023-05-29T07:32:37;96389.66;;;26.85;60.22
56807;BME280;42687;42.524;12.052;2023-05-29T07:35:03;96383.47;;;26.85;59.89
56807;BME280;42687;42.524;12.052;2023-05-29T07:37:29;96380.31;;;26.81;59.79
56807;BME280;42687;42.524;12.052;2023-05-29T07:39:55;96384.91;;;26.80;60.32
56807;BME280;42687;42.524;12.052;2023-05-29T07:42:21;96388.03;;;26.91;60.39
56807;BME280;42687;42.524;12.052;2023-05-29T07:44:47;96381.78;;;26.84;60.04
56807;BME280;42687;42.524;12.052;2023-05-29T07:47:13;96375.47;;;26.70;60.48
56807;BME280;42687;42.524;12.052;2023-05-29T07:49:40;96336.81;;;26.56;60.46
56807;BME280;42687;42.524;12.052;2023-05-29T07:52:06;96377.28;;;27.04;60.01
56807;BME280;42687;42.524;12.052;2023-05-29T07:54:32;96383.97;;;27.15;59.57
56807;BME280;42687;42.524;12.052;2023-05-29T07:56:59;96381.09;;;27.30;59.53
56807;BME280;42687;42.524;12.052;2023-05-29T07:59:25;96378.03;;;27.53;59.10
56807;BME280;42687;42.524;12.052;2023-05-29T08:01:52;96381.59;;;27.60;59.34
56807;BME280;42687;42.524;12.052;2023-05-29T08:04:17;96378.25;;;27.85;58.30
56807;BME280;42687;42.524;12.052;2023-05-29T08:06:43;96377.66;;;28.10;58.32
56807;BME280;42687;42.524;12.052;2023-05-29T08:09:10;96386.38;;;28.32;57.83
56807;BME280;42687;42.524;12.052;2023-05-29T08:11:36;96377.41;;;28.45;57.64
56807;BME280;42687;42.524;12.052;2023-05-29T08:14:03;96353.50;;;28.28;57.69
56807;BME280;42687;42.524;12.052;2023-05-29T08:16:29;96377.38;;;28.58;57.43
56807;BME280;42687;42.524;12.052;2023-05-29T08:18:54;96371.72;;;28.60;56.97
56807;BME280;42687;42.524;12.052;2023-05-29T08:21:21;96379.41;;;28.63;57.04
56807;BME280;42687;42.524;12.052;2023-05-29T08:23:47;96378.81;;;28.68;57.04
56807;BME280;42687;42.524;12.052;2023-05-29T08:26:12;96377.53;;;28.77;56.42
56807;BME280;42687;42.524;12.052;2023-05-29T08:28:39;96374.38;;;28.80;56.19
56807;BME280;42687;42.524;12.052;2023-05-29T08:31:04;96395.09;;;29.06;55.85
56807;BME280;42687;42.524;12.052;2023-05-29T08:33:30;96403.44;;;29.05;55.93
56807;BME280;42687;42.524;12.052;2023-05-29T08:35:58;96394.13;;;28.94;55.81
56807;BME280;42687;42.524;12.052;2023-05-29T08:38:24;96390.66;;;28.60;56.49
56807;BME280;42687;42.524;12.052;2023-05-29T08:40:51;96404.41;;;28.58;57.27
56807;BME280;42687;42.524;12.052;2023-05-29T08:43:22;96386.94;;;28.61;56.81
56807;BME280;42687;42.524;12.052;2023-05-29T08:45:54;96399.81;;;28.72;57.01
56807;BME280;42687;42.524;12.052;2023-05-29T08:48:23;96400.41;;;28.81;57.11
56807;BME280;42687;42.524;12.052;2023-05-29T08:50:53;96405.16;;;28.86;57.01
56807;BME280;42687;42.524;12.052;2023-05-29T08:53:21;96384.72;;;29.03;56.32
56807;BME280;42687;42.524;12.052;2023-05-29T08:55:49;96388.44;;;29.09;56.19
56807;BME280;42687;42.524;12.052;2023-05-29T08:58:19;96395.72;;;29.02;55.82
56807;BME280;42687;42.524;12.052;2023-05-29T09:00:51;96406.34;;;29.10;55.95
56807;BME280;42687;42.524;12.052;2023-05-29T09:03:16;96394.50;;;28.98;55.70
56807;BME280;42687;42.524;12.052;2023-05-29T09:05:44;96407.03;;;28.92;55.62
56807;BME280;42687;42.524;12.052;2023-05-29T09:08:11;96411.84;;;28.76;55.77
56807;BME280;42687;42.524;12.052;2023-05-29T09:10:41;96410.22;;;28.69;55.95
56807;BME280;42687;42.524;12.052;2023-05-29T09:13:11;96401.94;;;28.37;56.57
56807;BME280;42687;42.524;12.052;2023-05-29T09:15:40;96393.44;;;28.33;56.66
56807;BME280;42687;42.524;12.052;2023-05-29T09:18:08;96404.25;;;28.33;56.60
56807;BME280;42687;42.524;12.052;2023-05-29T09:20:34;96403.81;;;28.43;56.03
56807;BME280;42687;42.524;12.052;2023-05-29T09:23:04;96406.47;;;28.56;56.23
56807;BME280;42687;42.524;12.052;2023-05-29T09:25:32;96412.31;;;28.53;56.12
56807;BME280;42687;42.524;12.052;2023-05-29T09:28:03;96409.88;;;28.38;55.79
56807;BME280;42687;42.524;12.052;2023-05-29T09:33:04;96404.00;;;28.48;55.51
56807;BME280;42687;42.524;12.052;2023-05-29T09:35:40;96412.50;;;28.78;55.34
56807;BME280;42687;42.524;12.052;2023-05-29T09:38:07;96410.53;;;28.99;55.16
56807;BME280;42687;42.524;12.052;2023-05-29T09:40:37;96400.66;;;29.18;54.55
56807;BME280;42687;42.524;12.052;2023-05-29T09:45:30;96404.97;;;29.39;54.04
56807;BME280;42687;42.524;12.052;2023-05-29T09:47:56;96399.97;;;29.36;54.35
56807;BME280;42687;42.524;12.052;2023-05-29T09:50:25;96402.94;;;29.21;54.02
56807;BME280;42687;42.524;12.052;2023-05-29T09:52:51;96410.13;;;29.02;54.62
56807;BME280;42687;42.524;12.052;2023-05-29T09:55:20;96415.03;;;28.67;54.82
56807;BME280;42687;42.524;12.052;2023-05-29T09:57:47;96394.69;;;28.37;54.86
56807;BME280;42687;42.524;12.052;2023-05-29T10:00:16;96385.53;;;28.38;54.55
56807;BME280;42687;42.524;12.052;2023-05-29T10:02:42;96407.50;;;28.69;54.57
56807;BME280;42687;42.524;12.052;2023-05-29T10:05:09;96390.25;;;28.56;54.52
56807;BME280;42687;42.524;12.052;2023-05-29T10:07:37;96404.81;;;28.55;54.67
56807;BME280;42687;42.524;12.052;2023-05-29T10:10:09;96395.47;;;28.44;54.51
56807;BME280;42687;42.524;12.052;2023-05-29T10:12:38;96396.53;;;28.43;54.88
56807;BME280;42687;42.524;12.052;2023-05-29T10:15:12;96396.94;;;28.47;54.27
56807;BME280;42687;42.524;12.052;2023-05-29T10:17:39;96406.91;;;28.67;54.54
56807;BME280;42687;42.524;12.052;2023-05-29T10:20:14;96402.81;;;29.03;53.84
56807;BME280;42687;42.524;12.052;2023-05-29T10:22:47;96400.19;;;29.35;52.88
56807;BME280;42687;42.524;12.052;2023-05-29T10:25:13;96404.88;;;29.53;52.50
56807;BME280;42687;42.524;12.052;2023-05-29T10:27:43;96399.28;;;29.48;52.38
56807;BME280;42687;42.524;12.052;2023-05-29T10:30:37;96400.44;;;29.26;52.76
56807;BME280;42687;42.524;12.052;2023-05-29T10:38:40;96396.84;;;29.39;52.60
56807;BME280;42687;42.524;12.052;2023-05-29T10:43:56;96401.94;;;29.54;52.41
56807;BME280;42687;42.524;12.052;2023-05-29T10:49:21;96401.06;;;29.60;52.16
56807;BME280;42687;42.524;12.052;2023-05-29T10:51:47;96405.97;;;29.45;52.19
56807;BME280;42687;42.524;12.052;2023-05-29T10:54:14;96390.66;;;29.19;52.63
56807;BME280;42687;42.524;12.052;2023-05-29T10:56:44;96397.09;;;29.18;52.01
56807;BME280;42687;42.524;12.052;2023-05-29T10:59:17;96410.66;;;29.18;52.30
56807;BME280;42687;42.524;12.052;2023-05-29T11:01:43;96390.50;;;29.07;52.42
56807;BME280;42687;42.524;12.052;2023-05-29T11:06:41;96396.47;;;29.29;51.17
56807;BME280;42687;42.524;12.052;2023-05-29T11:09:26;96394.22;;;29.19;51.80
56807;BME280;42687;42.524;12.052;2023-05-29T11:15:08;96406.97;;;29.05;51.99
56807;BME280;42687;42.524;12.052;2023-05-29T11:20:09;96399.63;;;29.12;51.58
56807;BME280;42687;42.524;12.052;2023-05-29T11:25:06;96373.63;;;29.11;51.21
56807;BME280;42687;42.524;12.052;2023-05-29T11:27:33;96389.59;;;29.26;50.75
56807;BME280;42687;42.524;12.052;2023-05-29T11:30:00;96383.97;;;29.21;50.89
56807;BME280;42687;42.524;12.052;2023-05-29T11:32:27;96385.88;;;29.21;50.81
56807;BME280;42687;42.524;12.052;2023-05-29T11:34:56;96381.13;;;29.09;50.92
56807;BME280;42687;42.524;12.052;2023-05-29T11:37:24;96345.16;;;29.02;50.70
56807;BME280;42687;42.524;12.052;2023-05-29T11:39:50;96375.31;;;29.51;50.10
56807;BME280;42687;42.524;12.052;2023-05-29T11:42:16;96372.53;;;29.90;49.41
56807;BME280;42687;42.524;12.052;2023-05-29T11:44:42;96370.28;;;30.05;48.70
56807;BME280;42687;42.524;12.052;2023-05-29T11:47:07;96365.66;;;29.87;48.60
56807;BME280;42687;42.524;12.052;2023-05-29T11:49:36;96363.56;;;29.83;48.59
56807;BME280;42687;42.524;12.052;2023-05-29T11:52:15;96363.34;;;29.91;48.55
56807;BME280;42687;42.524;12.052;2023-05-29T11:54:43;96363.22;;;30.04;48.00
56807;BME280;42687;42.524;12.052;2023-05-29T11:57:19;96357.69;;;30.18;47.62
56807;BME280;42687;42.524;12.052;2023-05-29T11:59:46;96352.03;;;30.19;47.57
56807;BME280;42687;42.524;12.052;2023-05-29T12:02:12;96352.50;;;30.16;47.75
56807;BME280;42687;42.524;12.052;2023-05-29T12:04:37;96350.81;;;30.15;47.86
56807;BME280;42687;42.524;12.052;2023-05-29T12:07:19;96342.16;;;30.25;47.69
56807;BME280;42687;42.524;12.052;2023-05-29T12:09:45;96351.44;;;30.36;47.39
56807;BME280;42687;42.524;12.052;2023-05-29T12:12:10;96352.97;;;30.50;47.94
56807;BME280;42687;42.524;12.052;2023-05-29T12:14:36;96344.28;;;30.41;47.78
56807;BME280;42687;42.524;12.052;2023-05-29T12:17:02;96341.13;;;29.75;49.01
56807;BME280;42687;42.524;12.052;2023-05-29T12:19:27;96338.19;;;28.81;50.65
56807;BME280;42687;42.524;12.052;2023-05-29T12:21:53;96349.59;;;27.77;52.13
56807;BME280;42687;42.524;12.052;2023-05-29T12:24:19;96337.16;;;26.81;53.19
56807;BME280;42687;42.524;12.052;2023-05-29T12:26:45;96344.50;;;26.17;53.90
56807;BME280;42687;42.524;12.052;2023-05-29T12:29:12;96329.78;;;25.63;54.70
56807;BME280;42687;42.524;12.052;2023-05-29T12:31:38;96326.66;;;25.16;54.64
56807;BME280;42687;42.524;12.052;2023-05-29T12:34:08;96328.97;;;25.41;54.74
56807;BME280;42687;42.524;12.052;2023-05-29T12:36:35;96327.09;;;26.13;53.22
56807;BME280;42687;42.524;12.052;2023-05-29T12:39:05;96315.78;;;26.79;52.39
56807;BME280;42687;42.524;12.052;2023-05-29T12:41:34;96318.38;;;27.28;51.60
56807;BME280;42687;42.524;12.052;2023-05-29T12:44:02;96305.56;;;27.57;50.93
56807;BME280;42687;42.524;12.052;2023-05-29T12:46:38;96304.28;;;27.79;50.65
56807;BME280;42687;42.524;12.052;2023-05-29T12:49:17;96303.00;;;27.95;49.91
56807;BME280;42687;42.524;12.052;2023-05-29T12:51:46;96305.13;;;27.87;51.18
56807;BME280;42687;42.524;12.052;2023-05-29T12:54:13;96298.66;;;27.81;51.53
56807;BME280;42687;42.524;12.052;2023-05-29T12:56:40;96309.28;;;27.96;51.26
56807;BME280;42687;42.524;12.052;2023-05-29T12:59:09;96303.66;;;28.04;51.54
56807;BME280;42687;42.524;12.052;2023-05-29T13:01:39;96298.47;;;28.03;51.59
56807;BME280;42687;42.524;12.052;2023-05-29T13:04:05;96298.84;;;28.00;51.38
56807;BME280;42687;42.524;12.052;2023-05-29T13:06:39;96296.38;;;27.85;51.66
56807;BME280;42687;42.524;12.052;2023-05-29T13:09:05;96291.63;;;27.60;52.38
56807;BME280;42687;42.524;12.052;2023-05-29T13:11:33;96291.03;;;27.44;52.82
56807;BME280;42687;42.524;12.052;2023-05-29T13:13:58;96284.13;;;27.35;53.16
56807;BME280;42687;42.524;12.052;2023-05-29T13:16:24;96283.28;;;27.35;52.95
56807;BME280;42687;42.524;12.052;2023-05-29T13:18:50;96276.44;;;27.25;53.34
56807;BME280;42687;42.524;12.052;2023-05-29T13:21:16;96284.28;;;27.07;53.66
56807;BME280;42687;42.524;12.052;2023-05-29T13:23:41;96275.97;;;26.88;53.77
56807;BME280;42687;42.524;12.052;2023-05-29T13:26:07;96276.72;;;26.69;53.30
56807;BME280;42687;42.524;12.052;2023-05-29T13:28:33;96273.78;;;26.57;53.96
56807;BME280;42687;42.524;12.052;2023-05-29T13:30:58;96281.19;;;26.41;53.79